sensor_id;sensor_type;location;lat;lon;timestamp;P1;durP1;ratioP1;P2;durP2;ratioP2
61330;SDS011;57640;52.472;-1.950;2022-08-11T08:43:42;7.03;;;3.38;;
61330;SDS011;57640;52.472;-1.950;2022-08-11T08:46:20;6.75;;;3.33;;
61330;SDS011;57640;52.472;-1.950;2022-08-11T08:48:54;5.35;;;3.10;;
61330;SDS011;57640;52.472;-1.950;2022-08-11T08:51:29;10.20;;;3.20;;
61330;SDS011;57640;52.472;-1.950;2022-08-11T08:54:03;4.40;;;2.90;;
61330;SDS011;57640;52.472;-1.950;2022-08-11T08:56:38;4.60;;;2.65;;
61330;SDS011;57640;52.472;-1.950;2022-08-11T08:59:12;9.35;;;2.80;;
61330;SDS011;57640;52.472;-1.950;2022-08-11T09:01:47;5.15;;;2.83;;
61330;SDS011;57640;52.472;-1.950;2022-08-11T09:04:30;3.95;;;2.90;;
61330;SDS011;57640;52.472;-1.950;2022-08-11T09:07:06;3.67;;;2.55;;
61330;SDS011;57640;52.472;-1.950;2022-08-11T09:09:41;3.85;;;2.30;;
61330;SDS011;57640;52.472;-1.950;2022-08-11T09:12:15;5.35;;;2.30;;
61330;SDS011;57640;52.472;-1.950;2022-08-11T09:14:54;2.88;;;2.35;;
61330;SDS011;57640;52.472;-1.950;2022-08-11T09:17:33;5.22;;;2.25;;
61330;SDS011;57640;52.472;-1.950;2022-08-11T09:20:06;4.35;;;2.28;;
61330;SDS011;57640;52.472;-1.950;2022-08-11T09:22:40;4.93;;;2.40;;
61330;SDS011;57640;52.472;-1.950;2022-08-11T09:25:28;3.50;;;2.55;;
61330;SDS011;57640;52.472;-1.950;2022-08-11T09:28:12;2.88;;;2.17;;
61330;SDS011;57640;52.472;-1.950;2022-08-11T09:30:52;3.92;;;2.30;;
61330;SDS011;57640;52.472;-1.950;2022-08-11T09:33:23;5.72;;;2.42;;
61330;SDS011;57640;52.472;-1.950;2022-08-11T09:35:55;2.83;;;2.20;;
61330;SDS011;57640;52.472;-1.950;2022-08-11T09:38:47;3.47;;;2.30;;
61330;SDS011;57640;52.472;-1.950;2022-08-11T09:41:33;4.03;;;2.15;;
61330;SDS011;57640;52.472;-1.950;2022-08-11T09:44:07;3.15;;;2.53;;
61330;SDS011;57640;52.472;-1.950;2022-08-11T09:46:55;3.38;;;2.50;;
61330;SDS011;57640;52.472;-1.950;2022-08-11T09:49:27;2.72;;;2.10;;
61330;SDS011;57640;52.472;-1.950;2022-08-11T09:52:00;3.80;;;2.30;;
61330;SDS011;57640;52.472;-1.950;2022-08-11T09:54:37;3.33;;;2.08;;
61330;SDS011;57640;52.472;-1.950;2022-08-11T09:57:11;3.58;;;2.30;;
61330;SDS011;57640;52.472;-1.950;2022-08-11T09:59:57;2.83;;;2.17;;
61330;SDS011;57640;52.472;-1.950;2022-08-11T10:02:50;3.53;;;2.20;;
61330;SDS011;57640;52.472;-1.950;2022-08-11T10:05:24;3.72;;;2.33;;
61330;SDS011;57640;52.472;-1.950;2022-08-11T10:08:26;2.58;;;2.00;;
61330;SDS011;57640;52.472;-1.950;2022-08-11T10:10:58;4.97;;;2.20;;
61330;SDS011;57640;52.472;-1.950;2022-08-11T10:13:32;3.90;;;2.25;;
61330;SDS011;57640;52.472;-1.950;2022-08-11T10:16:26;2.35;;;1.83;;
61330;SDS011;57640;52.472;-1.950;2022-08-11T10:19:00;4.22;;;2.30;;
61330;SDS011;57640;52.472;-1.950;2022-08-11T10:21:34;3.67;;;1.98;;
61330;SDS011;57640;52.472;-1.950;2022-08-11T10:24:08;2.72;;;2.10;;
61330;SDS011;57640;52.472;-1.950;2022-08-11T10:26:52;2.20;;;1.95;;
61330;SDS011;57640;52.472;-1.950;2022-08-11T10:29:29;2.22;;;1.80;;
61330;SDS011;57640;52.472;-1.950;2022-08-11T10:32:13;2.65;;;2.10;;
61330;SDS011;57640;52.472;-1.950;2022-08-11T10:35:06;3.58;;;2.10;;
61330;SDS011;57640;52.472;-1.950;2022-08-11T10:37:42;3.17;;;1.95;;
61330;SDS011;57640;52.472;-1.950;2022-08-11T10:40:17;2.55;;;1.80;;
61330;SDS011;57640;52.472;-1.950;2022-08-11T10:42:53;2.95;;;2.00;;
61330;SDS011;57640;52.472;-1.950;2022-08-11T10:45:30;2.10;;;1.90;;
61330;SDS011;57640;52.472;-1.950;2022-08-11T10:48:20;3.53;;;1.95;;
61330;SDS011;57640;52.472;-1.950;2022-08-11T10:50:57;3.10;;;1.90;;
61330;SDS011;57640;52.472;-1.950;2022-08-11T10:53:44;2.60;;;1.80;;
61330;SDS011;57640;52.472;-1.950;2022-08-11T10:56:32;2.60;;;1.90;;
61330;SDS011;57640;52.472;-1.950;2022-08-11T10:59:16;3.30;;;1.80;;
61330;SDS011;57640;52.472;-1.950;2022-08-11T11:01:49;3.05;;;1.90;;
61330;SDS011;57640;52.472;-1.950;2022-08-11T11:04:26;3.08;;;2.00;;
61330;SDS011;57640;52.472;-1.950;2022-08-11T11:07:08;3.78;;;1.98;;
61330;SDS011;57640;52.472;-1.950;2022-08-11T11:09:46;1.88;;;1.73;;
61330;SDS011;57640;52.472;-1.950;2022-08-11T11:12:22;3.15;;;1.90;;
61330;SDS011;57640;52.472;-1.950;2022-08-11T11:15:05;3.15;;;2.03;;
61330;SDS011;57640;52.472;-1.950;2022-08-11T11:17:56;2.72;;;2.00;;
61330;SDS011;57640;52.472;-1.950;2022-08-11T11:20:34;2.50;;;1.70;;
61330;SDS011;57640;52.472;-1.950;2022-08-11T11:23:16;4.05;;;2.00;;
61330;SDS011;57640;52.472;-1.950;2022-08-11T11:29:09;2.70;;;1.83;;
61330;SDS011;57640;52.472;-1.950;2022-08-11T11:31:58;3.40;;;1.97;;
61330;SDS011;57640;52.472;-1.950;2022-08-11T11:37:52;3.00;;;1.90;;
61330;SDS011;57640;52.472;-1.950;2022-08-11T11:40:27;3.50;;;2.03;;
61330;SDS011;57640;52.472;-1.950;2022-08-11T11:43:01;7.28;;;2.30;;
61330;SDS011;57640;52.472;-1.950;2022-08-11T11:45:33;3.28;;;1.83;;
61330;SDS011;57640;52.472;-1.950;2022-08-11T11:48:06;3.15;;;2.08;;
61330;SDS011;57640;52.472;-1.950;2022-08-11T11:50:39;3.22;;;1.70;;
61330;SDS011;57640;52.472;-1.950;2022-08-11T11:53:16;2.27;;;1.70;;
61330;SDS011;57640;52.472;-1.950;2022-08-11T11:55:51;3.75;;;1.90;;
61330;SDS011;57640;52.472;-1.950;2022-08-11T11:58:24;2.40;;;1.80;;
61330;SDS011;57640;52.472;-1.950;2022-08-11T12:01:11;2.75;;;1.70;;
61330;SDS011;57640;52.472;-1.950;2022-08-11T12:03:52;3.25;;;1.80;;
61330;SDS011;57640;52.472;-1.950;2022-08-11T12:06:33;5.13;;;1.70;;
61330;SDS011;57640;52.472;-1.950;2022-08-11T12:09:04;2.17;;;1.80;;
61330;SDS011;57640;52.472;-1.950;2022-08-11T12:11:39;2.00;;;1.77;;
61330;SDS011;57640;52.472;-1.950;2022-08-11T12:14:32;4.78;;;1.73;;
61330;SDS011;57640;52.472;-1.950;2022-08-11T12:17:12;4.00;;;1.80;;
61330;SDS011;57640;52.472;-1.950;2022-08-11T12:19:45;2.30;;;1.80;;
61330;SDS011;57640;52.472;-1.950;2022-08-11T12:22:20;2.88;;;1.60;;
61330;SDS011;57640;52.472;-1.950;2022-08-11T12:25:05;2.50;;;1.70;;
61330;SDS011;57640;52.472;-1.950;2022-08-11T12:27:57;4.13;;;1.92;;
61330;SDS011;57640;52.472;-1.950;2022-08-11T12:33:34;2.47;;;1.70;;
61330;SDS011;57640;52.472;-1.950;2022-08-11T12:36:10;2.30;;;1.63;;
61330;SDS011;57640;52.472;-1.950;2022-08-11T12:38:46;2.60;;;1.88;;
61330;SDS011;57640;52.472;-1.950;2022-08-11T12:41:18;2.45;;;1.70;;
61330;SDS011;57640;52.472;-1.950;2022-08-11T12:44:08;3.58;;;1.88;;
61330;SDS011;57640;52.472;-1.950;2022-08-11T12:46:52;2.15;;;1.67;;
61330;SDS011;57640;52.472;-1.950;2022-08-11T12:49:27;5.15;;;2.00;;
61330;SDS011;57640;52.472;-1.950;2022-08-11T12:52:13;3.38;;;1.65;;
61330;SDS011;57640;52.472;-1.950;2022-08-11T12:54:55;3.15;;;1.80;;
61330;SDS011;57640;52.472;-1.950;2022-08-11T12:57:31;2.28;;;1.60;;
61330;SDS011;57640;52.472;-1.950;2022-08-11T13:00:19;3.25;;;1.75;;
61330;SDS011;57640;52.472;-1.950;2022-08-11T13:03:06;4.80;;;1.90;;
61330;SDS011;57640;52.472;-1.950;2022-08-11T13:05:51;3.13;;;1.70;;
61330;SDS011;57640;52.472;-1.950;2022-08-11T13:08:26;3.53;;;1.70;;
61330;SDS011;57640;52.472;-1.950;2022-08-11T13:11:02;3.45;;;1.80;;
61330;SDS011;57640;52.472;-1.950;2022-08-11T13:13:46;2.92;;;1.88;;
61330;SDS011;57640;52.472;-1.950;2022-08-11T13:16:27;2.95;;;1.63;;
61330;SDS011;57640;52.472;-1.950;2022-08-11T13:19:20;2.45;;;1.73;;
61330;SDS011;57640;52.472;-1.950;2022-08-11T13:24:49;2.25;;;1.58;;
61330;SDS011;57640;52.472;-1.950;2022-08-11T13:27:24;1.92;;;1.65;;
61330;SDS011;57640;52.472;-1.950;2022-08-11T13:30:05;1.70;;;1.60;;
61330;SDS011;57640;52.472;-1.950;2022-08-11T13:32:57;1.80;;;1.60;;
61330;SDS011;57640;52.472;-1.950;2022-08-11T13:35:30;1.60;;;1.50;;
61330;SDS011;57640;52.472;-1.950;2022-08-11T13:38:11;3.30;;;1.70;;
61330;SDS011;57640;52.472;-1.950;2022-08-11T13:41:02;2.42;;;1.60;;
61330;SDS011;57640;52.472;-1.950;2022-08-11T13:43:57;2.03;;;1.65;;
61330;SDS011;57640;52.472;-1.950;2022-08-11T13:46:38;1.95;;;1.52;;
61330;SDS011;57640;52.472;-1.950;2022-08-11T13:49:17;3.13;;;1.65;;
61330;SDS011;57640;52.472;-1.950;2022-08-11T13:51:51;3.65;;;1.70;;
61330;SDS011;57640;52.472;-1.950;2022-08-11T13:57:00;4.30;;;1.80;;
61330;SDS011;57640;52.472;-1.950;2022-08-11T13:59:38;3.78;;;1.63;;
61330;SDS011;57640;52.472;-1.950;2022-08-11T14:02:12;15.35;;;2.08;;
61330;SDS011;57640;52.472;-1.950;2022-08-11T14:04:49;3.63;;;1.70;;
61330;SDS011;57640;52.472;-1.950;2022-08-11T14:07:31;7.78;;;2.15;;
61330;SDS011;57640;52.472;-1.950;2022-08-11T14:10:12;4.32;;;1.67;;
61330;SDS011;57640;52.472;-1.950;2022-08-11T14:12:51;4.45;;;1.65;;
61330;SDS011;57640;52.472;-1.950;2022-08-11T14:15:45;6.57;;;1.80;;
61330;SDS011;57640;52.472;-1.950;2022-08-11T14:18:42;3.65;;;1.60;;
61330;SDS011;57640;52.472;-1.950;2022-08-11T14:21:26;4.35;;;1.80;;
61330;SDS011;57640;52.472;-1.950;2022-08-11T14:24:12;2.63;;;1.70;;
61330;SDS011;57640;52.472;-1.950;2022-08-11T14:26:50;2.38;;;1.67;;
61330;SDS011;57640;52.472;-1.950;2022-08-11T14:29:29;5.82;;;1.80;;
61330;SDS011;57640;52.472;-1.950;2022-08-11T14:32:09;2.25;;;1.48;;
61330;SDS011;57640;52.472;-1.950;2022-08-11T14:34:46;3.45;;;1.85;;
61330;SDS011;57640;52.472;-1.950;2022-08-11T14:37:32;2.38;;;1.70;;
61330;SDS011;57640;52.472;-1.950;2022-08-11T14:40:12;2.58;;;1.77;;
61330;SDS011;57640;52.472;-1.950;2022-08-11T14:43:00;4.70;;;1.67;;
61330;SDS011;57640;52.472;-1.950;2022-08-11T14:45:50;1.97;;;1.70;;
61330;SDS011;57640;52.472;-1.950;2022-08-11T14:48:42;2.00;;;1.73;;
61330;SDS011;57640;52.472;-1.950;2022-08-11T14:51:29;3.30;;;1.77;;
61330;SDS011;57640;52.472;-1.950;2022-08-11T14:54:16;2.63;;;1.50;;
61330;SDS011;57640;52.472;-1.950;2022-08-11T14:57:13;5.97;;;1.80;;
61330;SDS011;57640;52.472;-1.950;2022-08-11T15:00:12;2.53;;;1.90;;
61330;SDS011;57640;52.472;-1.950;2022-08-11T15:03:02;3.53;;;1.80;;
61330;SDS011;57640;52.472;-1.950;2022-08-11T15:05:53;3.08;;;1.52;;
61330;SDS011;57640;52.472;-1.950;2022-08-11T15:08:37;2.92;;;1.70;;
61330;SDS011;57640;52.472;-1.950;2022-08-11T15:14:33;3.45;;;1.60;;
61330;SDS011;57640;52.472;-1.950;2022-08-11T15:17:18;14.98;;;2.63;;
61330;SDS011;57640;52.472;-1.950;2022-08-11T15:19:51;3.88;;;1.75;;
61330;SDS011;57640;52.472;-1.950;2022-08-11T15:22:37;5.70;;;1.90;;
61330;SDS011;57640;52.472;-1.950;2022-08-11T15:25:37;6.80;;;1.60;;
61330;SDS011;57640;52.472;-1.950;2022-08-11T15:28:19;7.20;;;2.10;;
61330;SDS011;57640;52.472;-1.950;2022-08-11T15:31:04;3.88;;;1.73;;
61330;SDS011;57640;52.472;-1.950;2022-08-11T15:36:57;2.88;;;1.52;;
61330;SDS011;57640;52.472;-1.950;2022-08-11T15:39:45;2.33;;;1.85;;
61330;SDS011;57640;52.472;-1.950;2022-08-11T15:42:32;5.93;;;1.92;;
61330;SDS011;57640;52.472;-1.950;2022-08-11T15:45:22;3.88;;;1.70;;
61330;SDS011;57640;52.472;-1.950;2022-08-11T15:48:06;3.00;;;1.77;;
61330;SDS011;57640;52.472;-1.950;2022-08-11T15:50:44;3.78;;;2.00;;
61330;SDS011;57640;52.472;-1.950;2022-08-11T15:53:31;14.27;;;2.53;;
61330;SDS011;57640;52.472;-1.950;2022-08-11T15:56:19;5.38;;;1.70;;
61330;SDS011;57640;52.472;-1.950;2022-08-11T15:59:30;4.43;;;1.95;;
61330;SDS011;57640;52.472;-1.950;2022-08-11T16:02:20;1.58;;;1.40;;
61330;SDS011;57640;52.472;-1.950;2022-08-11T16:05:09;3.00;;;1.40;;
61330;SDS011;57640;52.472;-1.950;2022-08-11T16:07:44;3.20;;;1.75;;
61330;SDS011;57640;52.472;-1.950;2022-08-11T16:10:19;3.28;;;1.67;;
61330;SDS011;57640;52.472;-1.950;2022-08-11T16:12:51;2.50;;;1.73;;
61330;SDS011;57640;52.472;-1.950;2022-08-11T16:15:51;3.05;;;1.70;;
61330;SDS011;57640;52.472;-1.950;2022-08-11T16:18:40;2.22;;;1.52;;
61330;SDS011;57640;52.472;-1.950;2022-08-11T16:21:16;5.15;;;1.92;;
61330;SDS011;57640;52.472;-1.950;2022-08-11T16:23:53;3.15;;;1.70;;
61330;SDS011;57640;52.472;-1.950;2022-08-11T16:26:29;3.47;;;1.63;;
61330;SDS011;57640;52.472;-1.950;2022-08-11T16:29:59;5.43;;;2.00;;
61330;SDS011;57640;52.472;-1.950;2022-08-11T16:32:22;5.30;;;1.80;;
61330;SDS011;57640;52.472;-1.950;2022-08-11T16:35:07;6.35;;;1.98;;
61330;SDS011;57640;52.472;-1.950;2022-08-11T16:37:52;8.98;;;2.30;;
61330;SDS011;57640;52.472;-1.950;2022-08-11T16:40:37;5.95;;;2.13;;
61330;SDS011;57640;52.472;-1.950;2022-08-11T16:43:12;5.00;;;1.90;;
61330;SDS011;57640;52.472;-1.950;2022-08-11T16:45:57;4.03;;;1.77;;
61330;SDS011;57640;52.472;-1.950;2022-08-11T16:48:44;3.90;;;1.75;;
61330;SDS011;57640;52.472;-1.950;2022-08-11T16:51:24;2.13;;;1.50;;
61330;SDS011;57640;52.472;-1.950;2022-08-11T16:53:57;8.18;;;2.00;;
61330;SDS011;57640;52.472;-1.950;2022-08-11T16:56:31;4.43;;;1.73;;
61330;SDS011;57640;52.472;-1.950;2022-08-11T16:59:09;2.10;;;1.58;;
61330;SDS011;57640;52.472;-1.950;2022-08-11T17:01:45;3.53;;;1.77;;
61330;SDS011;57640;52.472;-1.950;2022-08-11T17:04:27;4.70;;;1.65;;
61330;SDS011;57640;52.472;-1.950;2022-08-11T17:07:15;3.25;;;1.60;;
61330;SDS011;57640;52.472;-1.950;2022-08-11T17:10:04;3.88;;;1.70;;
61330;SDS011;57640;52.472;-1.950;2022-08-11T17:12:49;4.32;;;1.80;;
61330;SDS011;57640;52.472;-1.950;2022-08-11T17:15:34;3.08;;;1.70;;
61330;SDS011;57640;52.472;-1.950;2022-08-11T17:18:23;4.63;;;1.88;;
61330;SDS011;57640;52.472;-1.950;2022-08-11T17:21:10;4.57;;;1.70;;
61330;SDS011;57640;52.472;-1.950;2022-08-11T17:23:49;4.30;;;1.50;;
61330;SDS011;57640;52.472;-1.950;2022-08-11T17:26:21;3.55;;;1.40;;
61330;SDS011;57640;52.472;-1.950;2022-08-11T17:29:22;3.97;;;1.55;;
61330;SDS011;57640;52.472;-1.950;2022-08-11T17:31:58;2.95;;;1.58;;
61330;SDS011;57640;52.472;-1.950;2022-08-11T17:34:47;3.30;;;1.60;;
61330;SDS011;57640;52.472;-1.950;2022-08-11T17:37:32;2.20;;;1.50;;
61330;SDS011;57640;52.472;-1.950;2022-08-11T17:40:10;2.95;;;1.50;;
61330;SDS011;57640;52.472;-1.950;2022-08-11T17:42:41;2.95;;;1.45;;
61330;SDS011;57640;52.472;-1.950;2022-08-11T17:45:28;2.85;;;1.65;;
61330;SDS011;57640;52.472;-1.950;2022-08-11T17:48:24;4.63;;;1.55;;
61330;SDS011;57640;52.472;-1.950;2022-08-11T17:51:03;2.53;;;1.57;;
61330;SDS011;57640;52.472;-1.950;2022-08-11T17:53:40;3.90;;;1.80;;
61330;SDS011;57640;52.472;-1.950;2022-08-11T17:56:30;2.88;;;1.52;;
61330;SDS011;57640;52.472;-1.950;2022-08-11T17:59:17;2.33;;;1.70;;
61330;SDS011;57640;52.472;-1.950;2022-08-11T18:02:03;3.08;;;1.52;;
61330;SDS011;57640;52.472;-1.950;2022-08-11T18:04:50;2.67;;;1.60;;
61330;SDS011;57640;52.472;-1.950;2022-08-11T18:07:25;2.47;;;1.52;;
61330;SDS011;57640;52.472;-1.950;2022-08-11T18:10:10;4.00;;;1.70;;
61330;SDS011;57640;52.472;-1.950;2022-08-11T18:12:57;2.22;;;1.40;;
61330;SDS011;57640;52.472;-1.950;2022-08-11T18:15:42;2.30;;;1.60;;
61330;SDS011;57640;52.472;-1.950;2022-08-11T18:18:26;2.50;;;1.50;;
61330;SDS011;57640;52.472;-1.950;2022-08-11T18:21:14;1.90;;;1.50;;
61330;SDS011;57640;52.472;-1.950;2022-08-11T18:23:57;2.53;;;1.45;;
61330;SDS011;57640;52.472;-1.950;2022-08-11T18:26:46;2.97;;;1.83;;
61330;SDS011;57640;52.472;-1.950;2022-08-11T18:29:34;4.28;;;1.70;;
61330;SDS011;57640;52.472;-1.950;2022-08-11T18:32:17;4.90;;;1.60;;
61330;SDS011;57640;52.472;-1.950;2022-08-11T18:35:04;2.03;;;1.65;;
61330;SDS011;57640;52.472;-1.950;2022-08-11T18:37:50;1.67;;;1.58;;
61330;SDS011;57640;52.472;-1.950;2022-08-11T18:40:35;3.08;;;1.75;;
61330;SDS011;57640;52.472;-1.950;2022-08-11T18:43:19;3.17;;;1.80;;
61330;SDS011;57640;52.472;-1.950;2022-08-11T18:46:07;2.13;;;1.75;;
61330;SDS011;57640;52.472;-1.950;2022-08-11T18:48:54;3.33;;;1.80;;
61330;SDS011;57640;52.472;-1.950;2022-08-11T18:51:38;2.15;;;1.75;;
61330;SDS011;57640;52.472;-1.950;2022-08-11T18:54:23;2.10;;;1.80;;
61330;SDS011;57640;52.472;-1.950;2022-08-11T18:57:07;2.63;;;1.85;;
61330;SDS011;57640;52.472;-1.950;2022-08-11T18:59:52;2.20;;;1.77;;
61330;SDS011;57640;52.472;-1.950;2022-08-11T19:02:38;2.10;;;1.73;;
61330;SDS011;57640;52.472;-1.950;2022-08-11T19:05:22;1.80;;;1.70;;
61330;SDS011;57640;52.472;-1.950;2022-08-11T19:08:07;3.15;;;1.80;;
61330;SDS011;57640;52.472;-1.950;2022-08-11T19:10:53;2.33;;;1.80;;
61330;SDS011;57640;52.472;-1.950;2022-08-11T19:13:38;2.47;;;1.70;;
61330;SDS011;57640;52.472;-1.950;2022-08-11T19:16:23;2.28;;;1.73;;
61330;SDS011;57640;52.472;-1.950;2022-08-11T19:19:11;2.60;;;1.73;;
61330;SDS011;57640;52.472;-1.950;2022-08-11T19:21:56;3.47;;;2.05;;
61330;SDS011;57640;52.472;-1.950;2022-08-11T19:24:43;3.28;;;2.00;;
61330;SDS011;57640;52.472;-1.950;2022-08-11T19:27:30;3.75;;;2.00;;
61330;SDS011;57640;52.472;-1.950;2022-08-11T19:30:18;3.33;;;1.80;;
61330;SDS011;57640;52.472;-1.950;2022-08-11T19:33:00;3.33;;;2.00;;
61330;SDS011;57640;52.472;-1.950;2022-08-11T19:35:47;3.17;;;1.80;;
61330;SDS011;57640;52.472;-1.950;2022-08-11T19:38:29;5.45;;;2.67;;
61330;SDS011;57640;52.472;-1.950;2022-08-11T19:41:14;5.82;;;3.15;;
61330;SDS011;57640;52.472;-1.950;2022-08-11T19:43:58;3.75;;;2.30;;
61330;SDS011;57640;52.472;-1.950;2022-08-11T19:46:43;2.60;;;2.30;;
61330;SDS011;57640;52.472;-1.950;2022-08-11T19:49:27;3.28;;;2.15;;
61330;SDS011;57640;52.472;-1.950;2022-08-11T19:52:14;3.75;;;2.40;;
61330;SDS011;57640;52.472;-1.950;2022-08-11T19:54:59;5.15;;;2.30;;
61330;SDS011;57640;52.472;-1.950;2022-08-11T19:57:43;7.72;;;2.95;;
61330;SDS011;57640;52.472;-1.950;2022-08-11T20:00:28;6.03;;;3.38;;
61330;SDS011;57640;52.472;-1.950;2022-08-11T20:03:13;4.95;;;2.70;;
61330;SDS011;57640;52.472;-1.950;2022-08-11T20:05:58;3.72;;;2.78;;
61330;SDS011;57640;52.472;-1.950;2022-08-11T20:11:32;5.03;;;2.60;;
61330;SDS011;57640;52.472;-1.950;2022-08-11T20:14:20;3.45;;;3.15;;
61330;SDS011;57640;52.472;-1.950;2022-08-11T20:17:04;3.58;;;3.00;;
61330;SDS011;57640;52.472;-1.950;2022-08-11T20:19:51;3.35;;;2.78;;
61330;SDS011;57640;52.472;-1.950;2022-08-11T20:22:33;4.20;;;2.75;;
61330;SDS011;57640;52.472;-1.950;2022-08-11T20:25:21;3.85;;;2.65;;
61330;SDS011;57640;52.472;-1.950;2022-08-11T20:28:04;4.22;;;2.63;;
61330;SDS011;57640;52.472;-1.950;2022-08-11T20:30:50;4.13;;;2.60;;
61330;SDS011;57640;52.472;-1.950;2022-08-11T20:33:35;3.40;;;2.58;;
61330;SDS011;57640;52.472;-1.950;2022-08-11T20:36:19;3.88;;;2.70;;
61330;SDS011;57640;52.472;-1.950;2022-08-11T20:39:03;3.47;;;2.60;;
61330;SDS011;57640;52.472;-1.950;2022-08-11T20:41:51;2.75;;;2.40;;
61330;SDS011;57640;52.472;-1.950;2022-08-11T20:44:34;3.80;;;2.60;;
61330;SDS011;57640;52.472;-1.950;2022-08-11T20:47:21;4.00;;;2.42;;
61330;SDS011;57640;52.472;-1.950;2022-08-11T20:50:04;2.80;;;2.50;;
61330;SDS011;57640;52.472;-1.950;2022-08-11T20:52:50;3.78;;;2.47;;
61330;SDS011;57640;52.472;-1.950;2022-08-11T20:55:36;2.85;;;2.30;;
61330;SDS011;57640;52.472;-1.950;2022-08-11T20:58:21;2.60;;;2.40;;
61330;SDS011;57640;52.472;-1.950;2022-08-11T21:01:06;3.63;;;2.70;;
61330;SDS011;57640;52.472;-1.950;2022-08-11T21:03:51;2.80;;;2.40;;
61330;SDS011;57640;52.472;-1.950;2022-08-11T21:06:36;3.70;;;2.30;;
61330;SDS011;57640;52.472;-1.950;2022-08-11T21:09:21;3.40;;;2.65;;
61330;SDS011;57640;52.472;-1.950;2022-08-11T21:12:05;4.00;;;2.40;;
61330;SDS011;57640;52.472;-1.950;2022-08-11T21:14:53;2.85;;;2.40;;
61330;SDS011;57640;52.472;-1.950;2022-08-11T21:17:38;4.50;;;2.72;;
61330;SDS011;57640;52.472;-1.950;2022-08-11T21:20:25;3.92;;;2.60;;
61330;SDS011;57640;52.472;-1.950;2022-08-11T21:23:09;3.85;;;2.72;;
61330;SDS011;57640;52.472;-1.950;2022-08-11T21:25:56;3.53;;;2.33;;
61330;SDS011;57640;52.472;-1.950;2022-08-11T21:28:42;4.78;;;3.13;;
61330;SDS011;57640;52.472;-1.950;2022-08-11T21:31:30;3.88;;;3.10;;
61330;SDS011;57640;52.472;-1.950;2022-08-11T21:34:15;3.47;;;2.90;;
61330;SDS011;57640;52.472;-1.950;2022-08-11T21:37:01;4.80;;;3.17;;
61330;SDS011;57640;52.472;-1.950;2022-08-11T21:39:48;4.25;;;2.80;;
61330;SDS011;57640;52.472;-1.950;2022-08-11T21:42:33;7.05;;;3.28;;
61330;SDS011;57640;52.472;-1.950;2022-08-11T21:45:17;4.13;;;3.05;;
61330;SDS011;57640;52.472;-1.950;2022-08-11T21:48:04;4.15;;;2.80;;
61330;SDS011;57640;52.472;-1.950;2022-08-11T21:50:49;4.28;;;3.00;;
61330;SDS011;57640;52.472;-1.950;2022-08-11T21:53:32;3.30;;;2.80;;
61330;SDS011;57640;52.472;-1.950;2022-08-11T21:56:16;4.68;;;3.20;;
61330;SDS011;57640;52.472;-1.950;2022-08-11T21:59:01;4.93;;;3.13;;
61330;SDS011;57640;52.472;-1.950;2022-08-11T22:01:46;4.60;;;2.72;;
61330;SDS011;57640;52.472;-1.950;2022-08-11T22:04:35;5.38;;;2.72;;
61330;SDS011;57640;52.472;-1.950;2022-08-11T22:07:18;4.00;;;2.80;;
61330;SDS011;57640;52.472;-1.950;2022-08-11T22:10:04;5.47;;;2.90;;
61330;SDS011;57640;52.472;-1.950;2022-08-11T22:12:49;7.28;;;3.10;;
61330;SDS011;57640;52.472;-1.950;2022-08-11T22:15:35;4.32;;;2.83;;
61330;SDS011;57640;52.472;-1.950;2022-08-11T22:18:19;5.13;;;2.85;;
61330;SDS011;57640;52.472;-1.950;2022-08-11T22:21:05;4.80;;;3.00;;
61330;SDS011;57640;52.472;-1.950;2022-08-11T22:26:35;3.92;;;3.00;;
61330;SDS011;57640;52.472;-1.950;2022-08-11T22:29:18;4.00;;;2.88;;
61330;SDS011;57640;52.472;-1.950;2022-08-11T22:32:02;3.95;;;2.60;;
61330;SDS011;57640;52.472;-1.950;2022-08-11T22:34:46;6.60;;;3.33;;
61330;SDS011;57640;52.472;-1.950;2022-08-11T22:37:33;4.97;;;3.30;;
61330;SDS011;57640;52.472;-1.950;2022-08-11T22:40:16;5.13;;;3.60;;
61330;SDS011;57640;52.472;-1.950;2022-08-11T22:43:01;4.40;;;3.38;;
61330;SDS011;57640;52.472;-1.950;2022-08-11T22:45:46;4.57;;;3.20;;
61330;SDS011;57640;52.472;-1.950;2022-08-11T22:48:30;4.00;;;2.80;;
61330;SDS011;57640;52.472;-1.950;2022-08-11T22:51:17;4.50;;;2.88;;
61330;SDS011;57640;52.472;-1.950;2022-08-11T22:54:05;3.92;;;3.10;;
61330;SDS011;57640;52.472;-1.950;2022-08-11T22:56:50;5.18;;;3.03;;
61330;SDS011;57640;52.472;-1.950;2022-08-11T22:59:35;3.53;;;3.17;;
61330;SDS011;57640;52.472;-1.950;2022-08-11T23:02:20;5.80;;;3.30;;
61330;SDS011;57640;52.472;-1.950;2022-08-11T23:05:05;3.63;;;3.10;;
61330;SDS011;57640;52.472;-1.950;2022-08-11T23:07:49;6.07;;;3.25;;
61330;SDS011;57640;52.472;-1.950;2022-08-11T23:10:36;4.72;;;3.10;;
61330;SDS011;57640;52.472;-1.950;2022-08-11T23:13:19;4.32;;;3.15;;
61330;SDS011;57640;52.472;-1.950;2022-08-11T23:16:04;4.68;;;3.10;;
61330;SDS011;57640;52.472;-1.950;2022-08-11T23:18:49;4.50;;;2.80;;
61330;SDS011;57640;52.472;-1.950;2022-08-11T23:21:33;3.67;;;3.22;;
61330;SDS011;57640;52.472;-1.950;2022-08-11T23:24:18;3.90;;;3.20;;
61330;SDS011;57640;52.472;-1.950;2022-08-11T23:27:06;4.00;;;3.03;;
61330;SDS011;57640;52.472;-1.950;2022-08-11T23:29:49;4.32;;;3.10;;
61330;SDS011;57640;52.472;-1.950;2022-08-11T23:32:33;4.80;;;3.10;;
61330;SDS011;57640;52.472;-1.950;2022-08-11T23:35:18;4.70;;;3.10;;
61330;SDS011;57640;52.472;-1.950;2022-08-11T23:38:03;3.67;;;3.10;;
61330;SDS011;57640;52.472;-1.950;2022-08-11T23:40:45;6.22;;;3.00;;
